sensor_id;sensor_type;location;lat;lon;timestamp;pressure;altitude;pressure_sealevel;temperature;humidity
13068;BME280;6600;51.362;6.686;2023-09-07T00:01:45;101527.59;;;20.32;97.59
13068;BME280;6600;51.362;6.686;2023-09-07T00:04:10;101537.94;;;20.30;97.86
13068;BME280;6600;51.362;6.686;2023-09-07T00:06:40;101536.84;;;20.31;97.44
13068;BME280;6600;51.362;6.686;2023-09-07T00:09:09;101538.50;;;20.32;97.22
13068;BME280;6600;51.362;6.686;2023-09-07T00:11:36;101534.69;;;20.33;97.23
13068;BME280;6600;51.362;6.686;2023-09-07T00:14:01;101531.44;;;20.36;96.44
13068;BME280;6600;51.362;6.686;2023-09-07T00:16:26;101519.50;;;20.37;96.33
13068;BME280;6600;51.362;6.686;2023-09-07T00:18:52;101523.59;;;20.40;96.14
13068;BME280;6600;51.362;6.686;2023-09-07T00:21:17;101529.03;;;20.40;95.53
13068;BME280;6600;51.362;6.686;2023-09-07T00:23:42;101518.97;;;20.40;94.95
13068;BME280;6600;51.362;6.686;2023-09-07T00:26:08;101518.97;;;20.40;94.40
13068;BME280;6600;51.362;6.686;2023-09-07T00:28:33;101525.47;;;20.39;94.17
13068;BME280;6600;51.362;6.686;2023-09-07T00:30:59;101530.38;;;20.37;93.95
13068;BME280;6600;51.362;6.686;2023-09-07T00:33:24;101526.56;;;20.38;93.38
13068;BME280;6600;51.362;6.686;2023-09-07T00:35:49;101529.56;;;20.37;93.67
13068;BME280;6600;51.362;6.686;2023-09-07T00:38:15;101536.31;;;20.34;93.34
13068;BME280;6600;51.362;6.686;2023-09-07T00:40:43;101528.69;;;20.31;93.83
13068;BME280;6600;51.362;6.686;2023-09-07T00:43:09;101525.44;;;20.34;93.14
13068;BME280;6600;51.362;6.686;2023-09-07T00:45:34;101521.63;;;20.35;92.46
13068;BME280;6600;51.362;6.686;2023-09-07T00:48:00;101528.19;;;20.39;92.10
13068;BME280;6600;51.362;6.686;2023-09-07T00:50:25;101523.91;;;20.48;91.13
13068;BME280;6600;51.362;6.686;2023-09-07T00:52:51;101519.56;;;20.52;91.25
13068;BME280;6600;51.362;6.686;2023-09-07T00:55:16;101523.13;;;20.53;91.01
13068;BME280;6600;51.362;6.686;2023-09-07T00:57:42;101520.94;;;20.55;90.36
13068;BME280;6600;51.362;6.686;2023-09-07T01:00:08;101515.31;;;20.61;90.00
13068;BME280;6600;51.362;6.686;2023-09-07T01:02:34;101513.13;;;20.63;89.60
13068;BME280;6600;51.362;6.686;2023-09-07T01:05:01;101512.59;;;20.66;89.80
13068;BME280;6600;51.362;6.686;2023-09-07T01:07:43;101510.94;;;20.65;89.05
13068;BME280;6600;51.362;6.686;2023-09-07T01:10:11;101516.91;;;20.62;89.45
13068;BME280;6600;51.362;6.686;2023-09-07T01:12:36;101509.81;;;20.56;89.38
13068;BME280;6600;51.362;6.686;2023-09-07T01:15:02;101505.97;;;20.52;89.04
13068;BME280;6600;51.362;6.686;2023-09-07T01:17:29;101515.72;;;20.48;89.59
13068;BME280;6600;51.362;6.686;2023-09-07T01:19:56;101513.00;;;20.43;90.05
13068;BME280;6600;51.362;6.686;2023-09-07T01:22:24;101516.19;;;20.35;89.75
13068;BME280;6600;51.362;6.686;2023-09-07T01:24:50;101513.44;;;20.30;89.83
13068;BME280;6600;51.362;6.686;2023-09-07T01:27:18;101510.63;;;20.25;89.95
13068;BME280;6600;51.362;6.686;2023-09-07T01:29:43;101499.16;;;20.18;90.17
13068;BME280;6600;51.362;6.686;2023-09-07T01:32:09;101502.91;;;20.12;90.43
13068;BME280;6600;51.362;6.686;2023-09-07T01:34:38;101505.03;;;20.05;90.72
13068;BME280;6600;51.362;6.686;2023-09-07T01:37:04;101496.50;;;19.96;91.31
13068;BME280;6600;51.362;6.686;2023-09-07T01:39:29;101487.19;;;19.87;91.62
13068;BME280;6600;51.362;6.686;2023-09-07T01:41:54;101497.47;;;19.80;92.05
13068;BME280;6600;51.362;6.686;2023-09-07T01:44:20;101493.56;;;19.71;91.71
13068;BME280;6600;51.362;6.686;2023-09-07T01:46:45;101491.31;;;19.63;92.83
13068;BME280;6600;51.362;6.686;2023-09-07T01:49:10;101506.19;;;19.55;93.29
13068;BME280;6600;51.362;6.686;2023-09-07T01:51:35;101501.44;;;19.46;93.87
13068;BME280;6600;51.362;6.686;2023-09-07T01:54:01;101502.13;;;19.36;94.30
13068;BME280;6600;51.362;6.686;2023-09-07T01:56:27;101500.44;;;19.30;94.85
13068;BME280;6600;51.362;6.686;2023-09-07T01:58:52;101488.34;;;19.21;94.19
13068;BME280;6600;51.362;6.686;2023-09-07T02:03:47;101497.97;;;19.07;95.49
13068;BME280;6600;51.362;6.686;2023-09-07T02:06:13;101489.78;;;19.02;95.95
13068;BME280;6600;51.362;6.686;2023-09-07T02:08:38;101488.06;;;18.96;96.29
13068;BME280;6600;51.362;6.686;2023-09-07T02:11:05;101483.88;;;18.88;96.76
13068;BME280;6600;51.362;6.686;2023-09-07T02:13:31;101486.00;;;18.86;97.22
13068;BME280;6600;51.362;6.686;2023-09-07T02:15:56;101482.97;;;18.83;97.69
13068;BME280;6600;51.362;6.686;2023-09-07T02:18:21;101484.06;;;18.82;97.53
13068;BME280;6600;51.362;6.686;2023-09-07T02:20:46;101480.78;;;18.80;98.16
13068;BME280;6600;51.362;6.686;2023-09-07T02:23:12;101483.44;;;18.75;97.94
13068;BME280;6600;51.362;6.686;2023-09-07T02:25:37;101483.13;;;18.71;98.52
13068;BME280;6600;51.362;6.686;2023-09-07T02:28:03;101483.63;;;18.68;98.59
13068;BME280;6600;51.362;6.686;2023-09-07T02:30:28;101490.34;;;18.65;98.76
13068;BME280;6600;51.362;6.686;2023-09-07T02:32:54;101478.38;;;18.61;98.54
13068;BME280;6600;51.362;6.686;2023-09-07T02:35:19;101478.38;;;18.61;98.61
13068;BME280;6600;51.362;6.686;2023-09-07T02:37:44;101478.84;;;18.58;99.37
13068;BME280;6600;51.362;6.686;2023-09-07T02:40:10;101481.50;;;18.53;99.42
13068;BME280;6600;51.362;6.686;2023-09-07T02:42:35;101485.75;;;18.49;99.55
13068;BME280;6600;51.362;6.686;2023-09-07T02:45:01;101486.25;;;18.46;99.95
13068;BME280;6600;51.362;6.686;2023-09-07T02:47:26;101482.16;;;18.44;100.00
13068;BME280;6600;51.362;6.686;2023-09-07T02:49:52;101482.66;;;18.41;100.00
13068;BME280;6600;51.362;6.686;2023-09-07T02:52:17;101492.84;;;18.34;100.00
13068;BME280;6600;51.362;6.686;2023-09-07T02:54:42;101489.22;;;18.28;100.00
13068;BME280;6600;51.362;6.686;2023-09-07T02:57:08;101486.44;;;18.23;100.00
13068;BME280;6600;51.362;6.686;2023-09-07T02:59:33;101483.63;;;18.18;100.00
13068;BME280;6600;51.362;6.686;2023-09-07T03:01:58;101486.00;;;18.14;100.00
13068;BME280;6600;51.362;6.686;2023-09-07T03:04:24;101486.78;;;18.10;100.00
13068;BME280;6600;51.362;6.686;2023-09-07T03:06:49;101476.88;;;18.04;100.00
13068;BME280;6600;51.362;6.686;2023-09-07T03:09:14;101484.97;;;17.99;100.00
13068;BME280;6600;51.362;6.686;2023-09-07T03:11:40;101484.63;;;17.95;100.00
13068;BME280;6600;51.362;6.686;2023-09-07T03:14:06;101482.16;;;17.94;100.00
13068;BME280;6600;51.362;6.686;2023-09-07T03:16:31;101481.00;;;17.90;100.00
13068;BME280;6600;51.362;6.686;2023-09-07T03:18:56;101473.13;;;17.88;100.00
13068;BME280;6600;51.362;6.686;2023-09-07T03:21:22;101472.78;;;17.85;100.00
13068;BME280;6600;51.362;6.686;2023-09-07T03:23:52;101469.00;;;17.86;100.00
13068;BME280;6600;51.362;6.686;2023-09-07T03:26:17;101474.91;;;17.83;100.00
13068;BME280;6600;51.362;6.686;2023-09-07T03:28:43;101477.03;;;17.81;100.00
13068;BME280;6600;51.362;6.686;2023-09-07T03:31:08;101477.53;;;17.78;100.00
13068;BME280;6600;51.362;6.686;2023-09-07T03:33:33;101476.72;;;17.77;100.00
13068;BME280;6600;51.362;6.686;2023-09-07T03:35:58;101478.03;;;17.75;100.00
13068;BME280;6600;51.362;6.686;2023-09-07T03:38:24;101478.25;;;17.73;100.00
13068;BME280;6600;51.362;6.686;2023-09-07T03:40:49;101481.47;;;17.70;100.00
13068;BME280;6600;51.362;6.686;2023-09-07T03:43:15;101475.72;;;17.66;100.00
13068;BME280;6600;51.362;6.686;2023-09-07T03:45:40;101484.56;;;17.62;100.00
13068;BME280;6600;51.362;6.686;2023-09-07T03:48:06;101485.31;;;17.57;100.00
13068;BME280;6600;51.362;6.686;2023-09-07T03:50:31;101480.56;;;17.53;100.00
13068;BME280;6600;51.362;6.686;2023-09-07T03:52:56;101484.59;;;17.50;100.00
13068;BME280;6600;51.362;6.686;2023-09-07T03:55:21;101486.16;;;17.46;100.00
13068;BME280;6600;51.362;6.686;2023-09-07T03:57:47;101482.03;;;17.44;100.00
13068;BME280;6600;51.362;6.686;2023-09-07T04:00:13;101482.88;;;17.44;100.00
13068;BME280;6600;51.362;6.686;2023-09-07T04:02:39;101488.50;;;17.43;100.00
13068;BME280;6600;51.362;6.686;2023-09-07T04:05:05;101489.00;;;17.40;100.00
13068;BME280;6600;51.362;6.686;2023-09-07T04:07:31;101497.34;;;17.38;100.00
13068;BME280;6600;51.362;6.686;2023-09-07T04:09:58;101495.63;;;17.32;100.00
13068;BME280;6600;51.362;6.686;2023-09-07T04:12:23;101494.44;;;17.28;100.00
13068;BME280;6600;51.362;6.686;2023-09-07T04:14:48;101489.03;;;17.28;100.00
13068;BME280;6600;51.362;6.686;2023-09-07T04:17:13;101489.53;;;17.25;100.00
13068;BME280;6600;51.362;6.686;2023-09-07T04:19:39;101484.09;;;17.25;100.00
13068;BME280;6600;51.362;6.686;2023-09-07T04:22:04;101483.28;;;17.25;100.00
13068;BME280;6600;51.362;6.686;2023-09-07T04:24:29;101484.09;;;17.25;100.00
13068;BME280;6600;51.362;6.686;2023-09-07T04:26:59;101482.44;;;17.24;100.00
13068;BME280;6600;51.362;6.686;2023-09-07T04:29:26;101486.25;;;17.23;100.00
13068;BME280;6600;51.362;6.686;2023-09-07T04:31:51;101483.53;;;17.23;100.00
13068;BME280;6600;51.362;6.686;2023-09-07T04:34:16;101477.50;;;17.21;100.00
13068;BME280;6600;51.362;6.686;2023-09-07T04:36:42;101479.66;;;17.19;100.00
13068;BME280;6600;51.362;6.686;2023-09-07T04:39:07;101478.47;;;17.15;100.00
13068;BME280;6600;51.362;6.686;2023-09-07T04:41:32;101483.91;;;17.15;100.00
13068;BME280;6600;51.362;6.686;2023-09-07T04:43:57;101475.78;;;17.15;100.00
13068;BME280;6600;51.362;6.686;2023-09-07T04:46:23;101481.19;;;17.15;100.00
13068;BME280;6600;51.362;6.686;2023-09-07T04:48:48;101485.56;;;17.16;100.00
13068;BME280;6600;51.362;6.686;2023-09-07T04:51:14;101485.56;;;17.16;100.00
13068;BME280;6600;51.362;6.686;2023-09-07T04:53:39;101480.13;;;17.16;100.00
13068;BME280;6600;51.362;6.686;2023-09-07T04:56:06;101482.84;;;17.16;100.00
13068;BME280;6600;51.362;6.686;2023-09-07T04:58:33;101485.56;;;17.16;100.00
13068;BME280;6600;51.362;6.686;2023-09-07T05:01:06;101486.38;;;17.16;100.00
13068;BME280;6600;51.362;6.686;2023-09-07T05:03:31;101483.91;;;17.15;100.00
13068;BME280;6600;51.362;6.686;2023-09-07T05:05:58;101486.59;;;17.15;100.00
13068;BME280;6600;51.362;6.686;2023-09-07T05:08:23;101484.72;;;17.15;100.00
13068;BME280;6600;51.362;6.686;2023-09-07T05:11:01;101489.31;;;17.15;100.00
13068;BME280;6600;51.362;6.686;2023-09-07T05:13:27;101489.53;;;17.13;100.00
13068;BME280;6600;51.362;6.686;2023-09-07T05:15:54;101498.50;;;17.14;100.00
13068;BME280;6600;51.362;6.686;2023-09-07T05:18:20;101497.44;;;17.15;100.00
13068;BME280;6600;51.362;6.686;2023-09-07T05:20:45;101496.38;;;17.16;100.00
13068;BME280;6600;51.362;6.686;2023-09-07T05:23:14;101500.50;;;17.18;100.00
13068;BME280;6600;51.362;6.686;2023-09-07T05:25:48;101502.97;;;17.20;100.00
13068;BME280;6600;51.362;6.686;2023-09-07T05:28:16;101501.88;;;17.21;100.00
13068;BME280;6600;51.362;6.686;2023-09-07T05:30:42;101506.25;;;17.22;100.00
13068;BME280;6600;51.362;6.686;2023-09-07T05:33:09;101504.72;;;17.26;100.00
13068;BME280;6600;51.362;6.686;2023-09-07T05:35:35;101500.13;;;17.27;100.00
13068;BME280;6600;51.362;6.686;2023-09-07T05:38:00;101513.53;;;17.33;100.00
13068;BME280;6600;51.362;6.686;2023-09-07T05:40:25;101511.38;;;17.35;100.00
13068;BME280;6600;51.362;6.686;2023-09-07T05:42:51;101512.78;;;17.38;100.00
13068;BME280;6600;51.362;6.686;2023-09-07T05:45:16;101515.38;;;17.44;100.00
13068;BME280;6600;51.362;6.686;2023-09-07T05:47:42;101521.94;;;17.48;100.00
13068;BME280;6600;51.362;6.686;2023-09-07T05:50:07;101525.59;;;17.54;100.00
13068;BME280;6600;51.362;6.686;2023-09-07T05:52:32;101524.66;;;17.60;100.00
13068;BME280;6600;51.362;6.686;2023-09-07T05:54:58;101523.66;;;17.66;100.00
13068;BME280;6600;51.362;6.686;2023-09-07T05:57:23;101523.50;;;17.73;100.00
13068;BME280;6600;51.362;6.686;2023-09-07T05:59:48;101535.84;;;17.80;100.00
13068;BME280;6600;51.362;6.686;2023-09-07T06:02:14;101537.38;;;17.88;100.00
13068;BME280;6600;51.362;6.686;2023-09-07T06:04:39;101527.75;;;17.97;100.00
13068;BME280;6600;51.362;6.686;2023-09-07T06:07:05;101540.69;;;18.06;100.00
13068;BME280;6600;51.362;6.686;2023-09-07T06:09:30;101536.50;;;18.15;100.00
13068;BME280;6600;51.362;6.686;2023-09-07T06:11:56;101542.31;;;18.24;100.00
13068;BME280;6600;51.362;6.686;2023-09-07T06:14:21;101541.91;;;18.32;100.00
13068;BME280;6600;51.362;6.686;2023-09-07T06:16:46;101545.28;;;18.39;100.00
13068;BME280;6600;51.362;6.686;2023-09-07T06:19:12;101540.53;;;18.46;100.00
13068;BME280;6600;51.362;6.686;2023-09-07T06:21:37;101540.38;;;18.53;100.00
13068;BME280;6600;51.362;6.686;2023-09-07T06:24:02;101553.56;;;18.61;100.00
13068;BME280;6600;51.362;6.686;2023-09-07T06:26:28;101555.59;;;18.71;100.00
13068;BME280;6600;51.362;6.686;2023-09-07T06:28:53;101552.00;;;18.87;100.00
13068;BME280;6600;51.362;6.686;2023-09-07T06:31:18;101558.88;;;19.11;100.00
13068;BME280;6600;51.362;6.686;2023-09-07T06:33:44;101555.50;;;19.42;100.00
13068;BME280;6600;51.362;6.686;2023-09-07T06:36:09;101554.84;;;19.79;100.00
13068;BME280;6600;51.362;6.686;2023-09-07T06:38:34;101560.16;;;20.22;100.00
13068;BME280;6600;51.362;6.686;2023-09-07T06:41:00;101561.63;;;20.66;98.94
13068;BME280;6600;51.362;6.686;2023-09-07T06:43:25;101561.78;;;20.92;97.79
13068;BME280;6600;51.362;6.686;2023-09-07T06:45:50;101558.06;;;21.08;96.42
13068;BME280;6600;51.362;6.686;2023-09-07T06:48:15;101561.44;;;21.20;94.38
13068;BME280;6600;51.362;6.686;2023-09-07T06:50:41;101566.50;;;21.63;94.95
13068;BME280;6600;51.362;6.686;2023-09-07T06:53:06;101556.78;;;21.98;92.63
13068;BME280;6600;51.362;6.686;2023-09-07T06:55:31;101559.00;;;22.16;93.24
13068;BME280;6600;51.362;6.686;2023-09-07T06:57:57;101565.00;;;22.28;92.22
13068;BME280;6600;51.362;6.686;2023-09-07T07:00:22;101571.00;;;22.20;89.64
13068;BME280;6600;51.362;6.686;2023-09-07T07:02:48;101567.72;;;22.28;86.34
13068;BME280;6600;51.362;6.686;2023-09-07T07:05:13;101562.25;;;22.38;86.98
13068;BME280;6600;51.362;6.686;2023-09-07T07:07:39;101570.44;;;22.38;85.18
13068;BME280;6600;51.362;6.686;2023-09-07T07:10:05;101567.72;;;22.48;84.50
13068;BME280;6600;51.362;6.686;2023-09-07T07:12:31;101574.28;;;22.52;83.07
13068;BME280;6600;51.362;6.686;2023-09-07T07:15:00;101573.19;;;22.43;83.92
13068;BME280;6600;51.362;6.686;2023-09-07T07:17:25;101574.28;;;22.42;85.38
13068;BME280;6600;51.362;6.686;2023-09-07T07:19:50;101568.56;;;22.44;87.24
13068;BME280;6600;51.362;6.686;2023-09-07T07:22:16;101573.72;;;22.35;85.51
13068;BME280;6600;51.362;6.686;2023-09-07T07:24:41;101575.09;;;22.23;85.25
13068;BME280;6600;51.362;6.686;2023-09-07T07:27:07;101574.81;;;22.09;85.54
13068;BME280;6600;51.362;6.686;2023-09-07T07:29:32;101577.53;;;22.04;85.40
13068;BME280;6600;51.362;6.686;2023-09-07T07:31:57;101572.06;;;21.99;85.76
13068;BME280;6600;51.362;6.686;2023-09-07T07:34:22;101568.25;;;21.95;86.02
13068;BME280;6600;51.362;6.686;2023-09-07T07:36:48;101572.06;;;21.94;85.32
13068;BME280;6600;51.362;6.686;2023-09-07T07:39:13;101566.59;;;21.94;85.78
13068;BME280;6600;51.362;6.686;2023-09-07T07:41:38;101569.59;;;21.97;86.45
13068;BME280;6600;51.362;6.686;2023-09-07T07:44:04;101572.63;;;21.96;86.51
13068;BME280;6600;51.362;6.686;2023-09-07T07:46:29;101570.97;;;22.00;86.01
13068;BME280;6600;51.362;6.686;2023-09-07T07:48:55;101573.72;;;22.05;84.74
13068;BME280;6600;51.362;6.686;2023-09-07T07:51:20;101574.28;;;22.12;84.59
13068;BME280;6600;51.362;6.686;2023-09-07T07:53:45;101573.19;;;22.18;84.42
13068;BME280;6600;51.362;6.686;2023-09-07T07:56:17;101578.38;;;22.25;83.64
13068;BME280;6600;51.362;6.686;2023-09-07T07:58:43;101575.63;;;22.35;84.56
13068;BME280;6600;51.362;6.686;2023-09-07T08:01:17;101581.38;;;22.43;84.42
13068;BME280;6600;51.362;6.686;2023-09-07T08:03:43;101572.63;;;22.51;84.98
13068;BME280;6600;51.362;6.686;2023-09-07T08:06:10;101576.75;;;22.64;84.88
13068;BME280;6600;51.362;6.686;2023-09-07T08:08:36;101568.81;;;22.73;85.42
13068;BME280;6600;51.362;6.686;2023-09-07T08:11:01;101573.19;;;22.84;84.86
13068;BME280;6600;51.362;6.686;2023-09-07T08:13:33;101565.47;;;23.01;84.68
13068;BME280;6600;51.362;6.686;2023-09-07T08:16:02;101572.00;;;23.20;84.96
13068;BME280;6600;51.362;6.686;2023-09-07T08:18:28;101560.44;;;23.38;84.42
13068;BME280;6600;51.362;6.686;2023-09-07T08:20:56;101553.31;;;23.47;82.93
13068;BME280;6600;51.362;6.686;2023-09-07T08:23:21;101555.72;;;23.59;83.11
13068;BME280;6600;51.362;6.686;2023-09-07T08:25:48;101557.53;;;23.74;82.21
13068;BME280;6600;51.362;6.686;2023-09-07T08:28:13;101550.34;;;23.88;81.94
13068;BME280;6600;51.362;6.686;2023-09-07T08:30:41;101548.03;;;24.05;81.37
13068;BME280;6600;51.362;6.686;2023-09-07T08:33:06;101548.47;;;24.22;81.70
13068;BME280;6600;51.362;6.686;2023-09-07T08:35:32;101553.88;;;24.32;80.66
13068;BME280;6600;51.362;6.686;2023-09-07T08:38:00;101554.00;;;24.51;80.30
13068;BME280;6600;51.362;6.686;2023-09-07T08:40:28;101555.16;;;24.69;80.09
13068;BME280;6600;51.362;6.686;2023-09-07T08:42:54;101555.59;;;24.81;78.45
13068;BME280;6600;51.362;6.686;2023-09-07T08:45:22;101552.97;;;24.99;78.53
13068;BME280;6600;51.362;6.686;2023-09-07T08:47:52;101558.00;;;25.16;77.93
13068;BME280;6600;51.362;6.686;2023-09-07T08:50:18;101546.78;;;25.36;77.72
13068;BME280;6600;51.362;6.686;2023-09-07T08:52:44;101542.78;;;25.47;76.58
13068;BME280;6600;51.362;6.686;2023-09-07T08:55:10;101540.28;;;25.70;73.75
13068;BME280;6600;51.362;6.686;2023-09-07T08:57:36;101541.78;;;25.81;74.14
13068;BME280;6600;51.362;6.686;2023-09-07T09:00:02;101536.50;;;26.03;73.44
13068;BME280;6600;51.362;6.686;2023-09-07T09:02:33;101543.44;;;26.14;71.54
13068;BME280;6600;51.362;6.686;2023-09-07T09:04:58;101549.03;;;26.28;72.29
13068;BME280;6600;51.362;6.686;2023-09-07T09:07:24;101545.81;;;26.39;71.57
13068;BME280;6600;51.362;6.686;2023-09-07T09:09:49;101540.34;;;26.53;72.59
13068;BME280;6600;51.362;6.686;2023-09-07T09:12:15;101539.28;;;26.68;71.60
13068;BME280;6600;51.362;6.686;2023-09-07T09:14:44;101537.97;;;26.79;70.89
13068;BME280;6600;51.362;6.686;2023-09-07T09:17:14;101537.28;;;26.87;70.16
13068;BME280;6600;51.362;6.686;2023-09-07T09:19:39;101544.81;;;26.95;69.19
13068;BME280;6600;51.362;6.686;2023-09-07T09:22:06;101535.66;;;27.13;69.38
13068;BME280;6600;51.362;6.686;2023-09-07T09:24:33;101534.84;;;27.26;69.32
13068;BME280;6600;51.362;6.686;2023-09-07T09:27:01;101543.38;;;27.38;67.41
13068;BME280;6600;51.362;6.686;2023-09-07T09:29:27;101540.13;;;27.50;67.21
13068;BME280;6600;51.362;6.686;2023-09-07T09:31:53;101534.63;;;27.50;65.56
13068;BME280;6600;51.362;6.686;2023-09-07T09:34:18;101536.72;;;27.67;65.94
13068;BME280;6600;51.362;6.686;2023-09-07T09:36:45;101538.22;;;27.73;65.74
13068;BME280;6600;51.362;6.686;2023-09-07T09:39:10;101537.00;;;27.79;63.23
13068;BME280;6600;51.362;6.686;2023-09-07T09:41:46;101536.56;;;27.85;64.09
13068;BME280;6600;51.362;6.686;2023-09-07T09:44:12;101537.75;;;27.93;65.01
13068;BME280;6600;51.362;6.686;2023-09-07T09:46:38;101536.53;;;27.99;65.20
13068;BME280;6600;51.362;6.686;2023-09-07T09:49:05;101532.63;;;28.00;65.16
13068;BME280;6600;51.362;6.686;2023-09-07T09:51:31;101528.53;;;28.11;64.35
13068;BME280;6600;51.362;6.686;2023-09-07T09:53:57;101536.50;;;28.13;64.77
13068;BME280;6600;51.362;6.686;2023-09-07T09:56:23;101522.75;;;28.21;64.30
13068;BME280;6600;51.362;6.686;2023-09-07T09:58:48;101530.09;;;28.26;64.39
13068;BME280;6600;51.362;6.686;2023-09-07T10:01:13;101525.59;;;28.30;64.61
13068;BME280;6600;51.362;6.686;2023-09-07T10:03:44;101526.78;;;28.37;61.28
13068;BME280;6600;51.362;6.686;2023-09-07T10:06:18;101519.72;;;28.53;63.83
13068;BME280;6600;51.362;6.686;2023-09-07T10:09:03;101522.06;;;28.69;63.08
13068;BME280;6600;51.362;6.686;2023-09-07T10:11:37;101506.53;;;28.73;61.81
13068;BME280;6600;51.362;6.686;2023-09-07T10:14:04;101505.88;;;28.76;60.91
13068;BME280;6600;51.362;6.686;2023-09-07T10:16:46;101509.16;;;28.78;62.08
13068;BME280;6600;51.362;6.686;2023-09-07T10:21:41;101500.91;;;28.86;62.96
13068;BME280;6600;51.362;6.686;2023-09-07T10:24:07;101497.97;;;28.83;61.63
13068;BME280;6600;51.362;6.686;2023-09-07T10:26:33;101495.09;;;28.96;62.89
13068;BME280;6600;51.362;6.686;2023-09-07T10:28:59;101487.16;;;28.95;61.69
13068;BME280;6600;51.362;6.686;2023-09-07T10:31:26;101490.09;;;29.07;61.54
13068;BME280;6600;51.362;6.686;2023-09-07T10:33:52;101485.56;;;29.11;60.75
13068;BME280;6600;51.362;6.686;2023-09-07T10:36:25;101492.41;;;29.22;59.61
13068;BME280;6600;51.362;6.686;2023-09-07T10:38:52;101486.75;;;29.27;60.71
13068;BME280;6600;51.362;6.686;2023-09-07T10:41:20;101483.22;;;29.44;61.22
13068;BME280;6600;51.362;6.686;2023-09-07T10:43:50;101475.75;;;29.53;60.93
13068;BME280;6600;51.362;6.686;2023-09-07T10:46:20;101479.47;;;29.57;60.48
13068;BME280;6600;51.362;6.686;2023-09-07T10:48:48;101480.78;;;29.68;60.04
13068;BME280;6600;51.362;6.686;2023-09-07T10:51:14;101473.28;;;29.69;60.06
13068;BME280;6600;51.362;6.686;2023-09-07T10:53:39;101468.41;;;29.66;60.52
13068;BME280;6600;51.362;6.686;2023-09-07T10:56:05;101472.19;;;29.61;59.70
13068;BME280;6600;51.362;6.686;2023-09-07T10:58:33;101466.31;;;29.63;59.40
13068;BME280;6600;51.362;6.686;2023-09-07T11:00:59;101468.94;;;29.68;60.32
13068;BME280;6600;51.362;6.686;2023-09-07T11:03:25;101470.84;;;29.76;60.14
13068;BME280;6600;51.362;6.686;2023-09-07T11:05:55;101466.81;;;29.82;59.43
13068;BME280;6600;51.362;6.686;2023-09-07T11:08:21;101464.22;;;29.94;59.09
13068;BME280;6600;51.362;6.686;2023-09-07T11:10:47;101460.00;;;29.88;58.64
13068;BME280;6600;51.362;6.686;2023-09-07T11:13:12;101456.41;;;29.96;61.25
13068;BME280;6600;51.362;6.686;2023-09-07T11:15:38;101459.66;;;29.98;59.69
13068;BME280;6600;51.362;6.686;2023-09-07T11:18:07;101450.22;;;29.99;59.63
13068;BME280;6600;51.362;6.686;2023-09-07T11:20:35;101458.19;;;30.09;59.63
13068;BME280;6600;51.362;6.686;2023-09-07T11:23:00;101443.69;;;30.12;59.75
13068;BME280;6600;51.362;6.686;2023-09-07T11:25:26;101442.22;;;30.23;59.38
13068;BME280;6600;51.362;6.686;2023-09-07T11:27:52;101437.91;;;30.34;59.34
13068;BME280;6600;51.362;6.686;2023-09-07T11:30:22;101440.22;;;30.32;58.80
13068;BME280;6600;51.362;6.686;2023-09-07T11:32:49;101441.66;;;30.38;59.84
13068;BME280;6600;51.362;6.686;2023-09-07T11:35:14;101440.22;;;30.41;59.42
13068;BME280;6600;51.362;6.686;2023-09-07T11:37:40;101434.53;;;30.37;59.39
13068;BME280;6600;51.362;6.686;2023-09-07T11:40:06;101441.97;;;30.45;59.45
13068;BME280;6600;51.362;6.686;2023-09-07T11:42:37;101432.53;;;30.46;56.83
13068;BME280;6600;51.362;6.686;2023-09-07T11:45:03;101437.53;;;30.62;57.06
13068;BME280;6600;51.362;6.686;2023-09-07T11:47:28;101434.28;;;30.60;57.12
13068;BME280;6600;51.362;6.686;2023-09-07T11:49:54;101431.47;;;30.68;57.59
13068;BME280;6600;51.362;6.686;2023-09-07T11:52:19;101427.69;;;30.73;58.08
13068;BME280;6600;51.362;6.686;2023-09-07T11:54:44;101433.03;;;30.78;56.63
13068;BME280;6600;51.362;6.686;2023-09-07T11:57:10;101421.97;;;30.78;56.26
13068;BME280;6600;51.362;6.686;2023-09-07T11:59:36;101422.66;;;30.75;57.62
13068;BME280;6600;51.362;6.686;2023-09-07T12:02:02;101423.31;;;30.72;57.56
13068;BME280;6600;51.362;6.686;2023-09-07T12:04:27;101420.34;;;30.77;57.82
13068;BME280;6600;51.362;6.686;2023-09-07T12:06:52;101417.72;;;30.80;56.90
13068;BME280;6600;51.362;6.686;2023-09-07T12:09:17;101413.19;;;30.76;56.76
13068;BME280;6600;51.362;6.686;2023-09-07T12:11:43;101412.16;;;30.89;57.87
13068;BME280;6600;51.362;6.686;2023-09-07T12:14:08;101412.44;;;30.96;57.33
13068;BME280;6600;51.362;6.686;2023-09-07T12:16:34;101411.34;;;30.88;57.10
13068;BME280;6600;51.362;6.686;2023-09-07T12:19:00;101405.00;;;30.88;57.43
13068;BME280;6600;51.362;6.686;2023-09-07T12:21:25;101401.84;;;30.98;55.82
13068;BME280;6600;51.362;6.686;2023-09-07T12:23:50;101412.59;;;30.99;55.05
13068;BME280;6600;51.362;6.686;2023-09-07T12:26:16;101401.78;;;31.06;55.68
13068;BME280;6600;51.362;6.686;2023-09-07T12:28:46;101399.81;;;31.07;55.47
13068;BME280;6600;51.362;6.686;2023-09-07T12:31:11;101394.66;;;31.05;55.99
13068;BME280;6600;51.362;6.686;2023-09-07T12:33:37;101390.19;;;31.13;55.40
13068;BME280;6600;51.362;6.686;2023-09-07T12:36:02;101390.13;;;31.22;56.74
13068;BME280;6600;51.362;6.686;2023-09-07T12:38:28;101388.97;;;31.23;55.33
13068;BME280;6600;51.362;6.686;2023-09-07T12:40:54;101386.47;;;31.30;55.20
13068;BME280;6600;51.362;6.686;2023-09-07T12:43:20;101381.25;;;31.28;55.32
13068;BME280;6600;51.362;6.686;2023-09-07T12:45:46;101383.56;;;31.26;55.06
13068;BME280;6600;51.362;6.686;2023-09-07T12:48:11;101378.03;;;31.26;55.50
13068;BME280;6600;51.362;6.686;2023-09-07T12:50:37;101373.31;;;31.27;55.06
13068;BME280;6600;51.362;6.686;2023-09-07T12:53:02;101377.34;;;31.29;55.65
13068;BME280;6600;51.362;6.686;2023-09-07T12:55:27;101371.31;;;31.27;56.00
13068;BME280;6600;51.362;6.686;2023-09-07T12:57:55;101369.22;;;31.24;56.19